createdAt,value
2019-05-06T00:00:31.050Z,5.65
2019-05-06T00:02:59.721Z,5.80
2019-05-06T00:05:28.658Z,5.97
2019-05-06T00:07:57.408Z,5.17
2019-05-06T00:10:36.480Z,5.80
2019-05-06T00:13:05.324Z,5.37
2019-05-06T00:15:34.592Z,5.35
2019-05-06T00:18:04.533Z,6.33
2019-05-06T00:20:34.811Z,5.72
2019-05-06T00:23:09.556Z,6.05
2019-05-06T00:25:45.540Z,6.58
2019-05-06T00:28:24.554Z,5.78
2019-05-06T00:31:02.831Z,6.70
2019-05-06T00:33:25.387Z,5.92
2019-05-06T00:35:54.157Z,5.20
2019-05-06T00:38:24.637Z,5.92
2019-05-06T00:40:56.481Z,6.78
2019-05-06T00:43:25.218Z,6.58
2019-05-06T00:45:53.884Z,6.53
2019-05-06T00:48:24.423Z,6.35
2019-05-06T00:50:53.686Z,6.47
2019-05-06T00:53:24.841Z,6.45
2019-05-06T00:55:53.917Z,6.22
2019-05-06T00:58:23.802Z,6.62
2019-05-06T01:00:53.766Z,6.47
2019-05-06T01:03:23.913Z,6.37
2019-05-06T01:05:54.219Z,5.97
2019-05-06T01:08:23.933Z,6.78
2019-05-06T01:10:54.497Z,7.45
2019-05-06T01:13:37.767Z,7.00
2019-05-06T01:16:07.167Z,7.78
2019-05-06T01:18:36.158Z,7.60
2019-05-06T01:21:11.164Z,9.10
2019-05-06T01:23:44.874Z,8.08
2019-05-06T01:26:17.061Z,8.73
2019-05-06T01:28:46.400Z,8.45
2019-05-06T01:31:15.867Z,8.55
2019-05-06T01:33:45.391Z,7.70
2019-05-06T01:36:14.384Z,8.50
2019-05-06T01:38:56.521Z,8.08
2019-05-06T01:44:19.639Z,7.85
2019-05-06T01:46:48.632Z,9.18
2019-05-06T01:49:17.377Z,8.55
2019-05-06T01:51:46.053Z,8.35
2019-05-06T01:54:14.708Z,9.65
2019-05-06T01:56:44.509Z,8.85
2019-05-06T01:59:14.082Z,8.20
2019-05-06T02:01:56.470Z,8.83
2019-05-06T02:04:13.972Z,9.28
2019-05-06T02:06:43.782Z,8.13
2019-05-06T02:09:17.267Z,8.03
2019-05-06T02:11:48.132Z,8.40
2019-05-06T02:14:17.285Z,8.43
2019-05-06T02:16:46.274Z,7.87
2019-05-06T02:19:15.021Z,8.53
2019-05-06T02:21:58.121Z,8.65
2019-05-06T02:24:33.760Z,7.97
2019-05-06T02:27:04.499Z,8.03
2019-05-06T02:29:36.528Z,8.33
2019-05-06T02:32:25.220Z,8.48
2019-05-06T02:34:54.623Z,8.58
2019-05-06T02:37:35.315Z,8.93
2019-05-06T02:40:05.446Z,8.23
2019-05-06T02:42:34.879Z,7.85
2019-05-06T02:45:04.202Z,7.75
2019-05-06T02:47:48.369Z,8.20
2019-05-06T02:50:20.191Z,8.10
2019-05-06T02:52:49.176Z,7.58
2019-05-06T02:55:17.940Z,7.83
2019-05-06T02:57:46.687Z,7.60
2019-05-06T03:00:17.223Z,7.30
2019-05-06T03:02:48.100Z,8.78
2019-05-06T03:05:16.704Z,7.65
2019-05-06T03:07:45.703Z,6.80
2019-05-06T03:10:16.292Z,8.38
2019-05-06T03:12:44.955Z,7.45
2019-05-06T03:15:16.889Z,7.05
2019-05-06T03:17:44.948Z,7.10
2019-05-06T03:20:24.230Z,7.62
2019-05-06T03:22:59.561Z,8.23
2019-05-06T03:25:33.176Z,7.95
2019-05-06T03:28:04.222Z,7.33
2019-05-06T03:30:36.292Z,8.28
2019-05-06T03:35:48.379Z,8.23
2019-05-06T03:38:04.121Z,8.45
2019-05-06T03:40:36.249Z,9.33
2019-05-06T03:43:03.847Z,8.75
2019-05-06T03:45:42.939Z,9.78
2019-05-06T03:48:19.427Z,9.98
2019-05-06T03:50:48.344Z,9.03
2019-05-06T03:53:17.687Z,9.55
2019-05-06T03:55:47.533Z,9.93
2019-05-06T03:58:26.304Z,9.58
2019-05-06T04:00:53.136Z,9.13
2019-05-06T04:03:33.781Z,10.35
2019-05-06T04:05:55.961Z,9.55
2019-05-06T04:08:24.527Z,9.50
2019-05-06T04:10:54.144Z,9.90
2019-05-06T04:13:23.286Z,9.40
2019-05-06T04:16:10.076Z,9.80
2019-05-06T04:18:43.792Z,9.93
2019-05-06T04:21:24.314Z,10.60
2019-05-06T04:23:58.303Z,9.80
2019-05-06T04:26:46.443Z,10.03
2019-05-06T04:29:15.838Z,10.53
2019-05-06T04:31:44.502Z,9.80
2019-05-06T04:34:19.103Z,9.28
2019-05-06T04:36:44.346Z,9.38
2019-05-06T04:39:13.796Z,10.18
2019-05-06T04:41:43.312Z,9.70
2019-05-06T04:44:13.954Z,10.35
2019-05-06T04:46:44.316Z,9.25
2019-05-06T04:49:14.962Z,10.80
2019-05-06T04:51:44.450Z,10.38
2019-05-06T04:54:13.732Z,9.75
2019-05-06T04:56:43.760Z,10.30
2019-05-06T04:59:13.854Z,10.65
2019-05-06T05:01:45.530Z,10.98
2019-05-06T05:04:26.900Z,10.85
2019-05-06T05:06:45.630Z,9.98
2019-05-06T05:09:17.177Z,10.05
2019-05-06T05:11:58.117Z,10.20
2019-05-06T05:14:45.530Z,10.25
2019-05-06T05:17:24.753Z,11.30
2019-05-06T05:19:53.583Z,12.15
2019-05-06T05:22:22.319Z,10.72
2019-05-06T05:24:52.152Z,12.55
2019-05-06T05:27:21.929Z,10.40
2019-05-06T05:29:52.164Z,15.63
2019-05-06T05:32:22.450Z,12.30
2019-05-06T05:34:52.296Z,11.68
2019-05-06T05:37:22.830Z,9.15
2019-05-06T05:39:52.093Z,9.23
2019-05-06T05:42:39.892Z,11.18
2019-05-06T05:47:45.974Z,12.35
2019-05-06T05:50:23.045Z,10.48
2019-05-06T05:52:52.101Z,12.78
2019-05-06T05:55:22.013Z,11.55
2019-05-06T05:57:51.920Z,12.13
2019-05-06T06:00:22.670Z,25.37
2019-05-06T06:02:52.989Z,11.18
2019-05-06T06:05:22.115Z,13.80
2019-05-06T06:07:53.001Z,15.18
2019-05-06T06:10:46.180Z,11.60
2019-05-06T06:13:15.308Z,13.43
2019-05-06T06:15:59.010Z,12.73
2019-05-06T06:18:43.077Z,10.10
2019-05-06T06:21:36.752Z,10.48
2019-05-06T06:24:13.137Z,31.62
2019-05-06T06:26:43.001Z,31.68
2019-05-06T06:29:12.595Z,10.15
2019-05-06T06:31:50.004Z,13.30
2019-05-06T06:34:24.072Z,9.60
2019-05-06T06:37:13.334Z,10.45
2019-05-06T06:39:44.173Z,9.73
2019-05-06T06:42:13.011Z,9.65
2019-05-06T06:44:42.437Z,11.50
2019-05-06T06:47:13.101Z,9.83
2019-05-06T06:49:42.607Z,10.20
2019-05-06T06:52:14.763Z,11.33
2019-05-06T06:54:43.865Z,12.20
2019-05-06T06:57:42.451Z,11.22
2019-05-06T07:00:39.608Z,28.77
2019-05-06T07:03:14.288Z,18.80
2019-05-06T07:06:08.386Z,10.30
2019-05-06T07:08:37.876Z,12.73
2019-05-06T07:11:06.637Z,11.48
2019-05-06T07:13:35.478Z,10.18
2019-05-06T07:16:04.977Z,12.75
2019-05-06T07:18:33.953Z,10.58
2019-05-06T07:21:22.382Z,10.53
2019-05-06T07:23:52.967Z,13.05
2019-05-06T07:26:23.875Z,7.92
2019-05-06T07:28:52.977Z,9.23
2019-05-06T07:31:25.805Z,9.00
2019-05-06T07:33:52.409Z,16.52
2019-05-06T07:36:22.834Z,23.47
2019-05-06T07:38:52.736Z,16.50
2019-05-06T07:41:45.781Z,54.98
2019-05-06T07:44:19.121Z,19.82
2019-05-06T07:47:03.579Z,27.02
2019-05-06T07:49:33.153Z,32.63
2019-05-06T07:52:02.892Z,7.95
2019-05-06T07:54:32.941Z,14.45
2019-05-06T07:57:02.496Z,7.80
2019-05-06T07:59:33.276Z,11.05
2019-05-06T08:02:02.296Z,9.45
2019-05-06T08:04:32.418Z,9.05
2019-05-06T08:07:03.104Z,9.03
2019-05-06T08:09:32.644Z,7.20
2019-05-06T08:12:02.805Z,7.30
2019-05-06T08:14:43.723Z,7.83
2019-05-06T08:17:26.092Z,8.53
2019-05-06T08:19:54.779Z,7.22
2019-05-06T08:22:45.140Z,6.97
2019-05-06T08:25:14.305Z,20.37
2019-05-06T08:27:43.642Z,9.88
2019-05-06T08:30:13.199Z,8.53
2019-05-06T08:32:42.503Z,7.42
2019-05-06T08:35:13.373Z,7.60
2019-05-06T08:37:42.709Z,8.25
2019-05-06T08:40:12.461Z,7.45
2019-05-06T08:42:42.624Z,7.97
2019-05-06T08:45:12.938Z,6.67
2019-05-06T08:47:42.506Z,6.72
2019-05-06T08:50:21.919Z,6.80
2019-05-06T08:53:05.035Z,7.28
2019-05-06T08:55:36.761Z,6.75
2019-05-06T08:58:05.786Z,8.70
2019-05-06T09:00:38.271Z,6.95
2019-05-06T09:03:06.976Z,5.87
2019-05-06T09:05:35.999Z,6.22
2019-05-06T09:08:05.524Z,6.28
2019-05-06T09:10:34.511Z,6.53
2019-05-06T09:13:03.272Z,5.90
2019-05-06T09:15:32.890Z,6.08
2019-05-06T09:18:02.945Z,5.53
2019-05-06T09:20:32.688Z,4.62
2019-05-06T09:23:04.496Z,4.87
2019-05-06T09:25:32.444Z,5.08
2019-05-06T09:28:23.253Z,5.00
2019-05-06T09:31:13.051Z,9.43
2019-05-06T09:33:48.744Z,5.05
2019-05-06T09:36:17.504Z,6.70
2019-05-06T09:38:46.580Z,4.65
2019-05-06T09:41:16.805Z,5.40
2019-05-06T09:43:45.792Z,4.97
2019-05-06T09:46:14.981Z,4.47
2019-05-06T09:49:22.929Z,5.50
2019-05-06T09:51:52.923Z,5.62
2019-05-06T09:54:32.240Z,5.62
2019-05-06T09:57:05.116Z,4.97
2019-05-06T09:59:34.205Z,5.58
2019-05-06T10:02:03.320Z,4.95
2019-05-06T10:04:32.483Z,4.05
2019-05-06T10:07:05.610Z,5.65
2019-05-06T10:09:34.714Z,5.22
2019-05-06T10:12:03.798Z,5.45
2019-05-06T10:14:32.621Z,4.83
2019-05-06T10:17:04.396Z,5.85
2019-05-06T10:19:34.702Z,5.33
2019-05-06T10:22:03.783Z,6.47
2019-05-06T10:24:32.535Z,4.50
2019-05-06T10:27:02.614Z,4.83
2019-05-06T10:29:43.232Z,3.77
2019-05-06T10:32:37.519Z,4.80
2019-05-06T10:35:07.537Z,5.12
2019-05-06T10:38:33.354Z,4.80
2019-05-06T10:41:07.706Z,7.12
2019-05-06T10:43:57.696Z,5.00
2019-05-06T10:46:26.380Z,4.90
2019-05-06T10:48:55.069Z,4.47
2019-05-06T10:51:29.456Z,4.85
2019-05-06T10:53:58.183Z,5.92
2019-05-06T10:56:53.847Z,5.10
2019-05-06T10:59:16.910Z,5.08
2019-05-06T11:01:47.033Z,5.50
2019-05-06T11:04:16.024Z,4.70
2019-05-06T11:06:45.224Z,5.22
2019-05-06T11:09:14.011Z,5.15
2019-05-06T11:11:43.309Z,5.37
2019-05-06T11:14:12.932Z,4.87
2019-05-06T11:16:41.734Z,4.67
2019-05-06T11:19:13.121Z,5.08
2019-05-06T11:21:42.166Z,5.33
2019-05-06T11:24:12.266Z,5.78
2019-05-06T11:26:43.040Z,5.50
2019-05-06T11:29:17.789Z,6.08
2019-05-06T11:31:57.236Z,6.00
2019-05-06T11:34:43.263Z,5.87
2019-05-06T11:37:43.830Z,5.40
2019-05-06T11:40:00.806Z,4.60
2019-05-06T11:42:33.520Z,4.75
2019-05-06T11:45:03.005Z,4.15
2019-05-06T11:47:32.490Z,3.85
2019-05-06T11:50:02.458Z,4.60
2019-05-06T11:52:34.469Z,5.10
2019-05-06T11:55:02.636Z,4.92
2019-05-06T11:57:32.634Z,8.20
2019-05-06T12:00:03.111Z,5.28
2019-05-06T12:02:33.015Z,6.53
2019-05-06T12:05:02.444Z,5.78
2019-05-06T12:07:33.265Z,5.33
2019-05-06T12:10:02.504Z,5.15
2019-05-06T12:12:31.391Z,7.15
2019-05-06T12:15:00.427Z,5.87
2019-05-06T12:17:29.350Z,6.03
2019-05-06T12:19:58.040Z,7.58
2019-05-06T12:22:35.619Z,7.03
2019-05-06T12:25:11.005Z,6.70
2019-05-06T12:27:46.157Z,5.92
2019-05-06T12:30:39.406Z,6.47
2019-05-06T12:33:36.279Z,5.08
2019-05-06T12:36:18.762Z,5.58
2019-05-06T12:39:15.818Z,7.25
2019-05-06T12:42:14.825Z,4.58
2019-05-06T12:47:46.841Z,5.55
2019-05-06T12:50:15.922Z,5.87
2019-05-06T12:52:47.051Z,11.48
2019-05-06T12:55:21.520Z,14.43
2019-05-06T12:57:46.564Z,5.60
2019-05-06T13:00:16.141Z,52.88
2019-05-06T13:02:45.064Z,6.15
2019-05-06T13:05:14.338Z,5.65
2019-05-06T13:07:47.543Z,7.28
2019-05-06T13:10:22.758Z,36.65
2019-05-06T13:12:58.989Z,8.80
2019-05-06T13:15:28.244Z,6.78
2019-05-06T13:17:56.912Z,6.60
2019-05-06T13:20:27.394Z,7.30
2019-05-06T13:23:20.941Z,6.55
2019-05-06T13:25:46.200Z,6.78
2019-05-06T13:28:16.620Z,7.12
2019-05-06T13:30:45.293Z,5.95
2019-05-06T13:33:22.702Z,5.60
2019-05-06T13:35:52.687Z,5.42
2019-05-06T13:38:22.497Z,5.28
2019-05-06T13:40:54.827Z,5.35
2019-05-06T13:43:38.743Z,20.00
2019-05-06T13:46:15.232Z,7.45
2019-05-06T13:48:49.920Z,5.97
2019-05-06T13:51:23.027Z,7.08
2019-05-06T13:53:52.882Z,7.15
2019-05-06T13:56:22.194Z,8.43
2019-05-06T13:58:52.586Z,6.72
2019-05-06T14:01:23.558Z,7.37
2019-05-06T14:03:52.657Z,16.02
2019-05-06T14:06:21.363Z,23.90
2019-05-06T14:08:50.314Z,20.80
2019-05-06T14:11:19.527Z,8.68
2019-05-06T14:13:48.470Z,9.58
2019-05-06T14:16:17.409Z,6.92
2019-05-06T14:18:46.670Z,13.75
2019-05-06T14:21:15.366Z,10.75
2019-05-06T14:23:44.816Z,22.00
2019-05-06T14:26:23.007Z,7.62
2019-05-06T14:28:55.582Z,12.10
2019-05-06T14:31:26.956Z,27.27
2019-05-06T14:33:55.647Z,21.12
2019-05-06T14:36:27.552Z,8.28
2019-05-06T14:38:55.352Z,6.20
2019-05-06T14:41:27.374Z,6.22
2019-05-06T14:43:56.205Z,12.85
2019-05-06T14:46:25.235Z,15.93
2019-05-06T14:48:54.194Z,6.37
2019-05-06T14:51:22.881Z,12.98
2019-05-06T14:53:53.021Z,8.18
2019-05-06T14:56:28.399Z,9.10
2019-05-06T14:59:07.336Z,6.10
2019-05-06T15:01:38.420Z,5.05
2019-05-06T15:04:07.326Z,11.10
2019-05-06T15:06:36.324Z,6.50
2019-05-06T15:09:08.044Z,8.20
2019-05-06T15:11:38.497Z,5.70
2019-05-06T15:14:07.419Z,6.25
2019-05-06T15:16:36.425Z,5.70
2019-05-06T15:19:05.656Z,5.85
2019-05-06T15:21:38.660Z,6.53
2019-05-06T15:24:05.327Z,6.83
2019-05-06T15:26:34.005Z,6.20
2019-05-06T15:29:03.430Z,8.05
2019-05-06T15:31:39.253Z,7.03
2019-05-06T15:34:13.057Z,7.25
2019-05-06T15:36:48.628Z,7.50
2019-05-06T15:39:17.412Z,7.45
2019-05-06T15:41:46.096Z,10.63
2019-05-06T15:44:15.064Z,8.05
2019-05-06T15:46:43.728Z,8.58
2019-05-06T15:49:12.430Z,8.80
2019-05-06T15:51:42.770Z,16.00
2019-05-06T15:54:11.812Z,10.98
2019-05-06T15:56:42.241Z,9.73
2019-05-06T15:59:12.145Z,9.40
2019-05-06T16:01:43.108Z,9.05
2019-05-06T16:04:12.253Z,9.45
2019-05-06T16:06:44.491Z,9.23
2019-05-06T16:09:14.228Z,9.80
2019-05-06T16:11:44.670Z,8.73
2019-05-06T16:14:12.891Z,9.10
2019-05-06T16:16:42.947Z,14.25
2019-05-06T16:19:12.975Z,8.98
2019-05-06T16:21:44.994Z,9.05
2019-05-06T16:24:19.715Z,9.53
2019-05-06T16:26:48.478Z,10.13
2019-05-06T16:29:18.877Z,10.00
2019-05-06T16:31:47.567Z,10.53
2019-05-06T16:34:16.263Z,10.68
2019-05-06T16:36:44.958Z,16.52
2019-05-06T16:39:14.160Z,14.45
2019-05-06T16:41:44.736Z,17.87
2019-05-06T16:44:13.885Z,14.35
2019-05-06T16:46:42.823Z,22.05
2019-05-06T16:49:14.017Z,15.78
2019-05-06T16:51:43.922Z,16.30
2019-05-06T16:54:12.447Z,16.57
2019-05-06T16:56:52.778Z,15.72
2019-05-06T16:59:23.641Z,13.88
2019-05-06T17:01:52.367Z,14.85
2019-05-06T17:04:33.479Z,18.67
2019-05-06T17:07:03.057Z,15.10
2019-05-06T17:09:33.231Z,14.80
2019-05-06T17:12:02.810Z,15.58
2019-05-06T17:14:32.992Z,15.78
2019-05-06T17:17:03.248Z,17.48
2019-05-06T17:19:32.811Z,16.75
2019-05-06T17:22:03.164Z,17.05
2019-05-06T17:24:33.111Z,18.10
2019-05-06T17:27:02.725Z,19.50
2019-05-06T17:29:59.822Z,21.90
2019-05-06T17:32:34.712Z,23.47
2019-05-06T17:35:03.725Z,21.95
2019-05-06T17:37:49.978Z,23.10
2019-05-06T17:40:19.548Z,22.62
2019-05-06T17:42:48.283Z,23.18
2019-05-06T17:45:39.348Z,23.80
2019-05-06T17:48:14.278Z,24.40
2019-05-06T17:50:44.856Z,26.33
2019-05-06T17:53:13.614Z,26.82
2019-05-06T17:55:43.276Z,26.77
2019-05-06T17:58:12.981Z,28.32
2019-05-06T18:00:42.945Z,29.42
2019-05-06T18:03:11.826Z,27.42
2019-05-06T18:05:42.179Z,26.75
2019-05-06T18:08:12.880Z,24.23
2019-05-06T18:10:42.692Z,24.37
2019-05-06T18:13:12.590Z,24.23
2019-05-06T18:15:43.063Z,24.75
2019-05-06T18:18:13.041Z,24.45
2019-05-06T18:20:42.693Z,25.27
2019-05-06T18:23:12.903Z,25.62
2019-05-06T18:25:43.076Z,25.97
2019-05-06T18:28:12.316Z,25.15
2019-05-06T18:30:43.488Z,25.95
2019-05-06T18:33:13.318Z,28.60
2019-05-06T18:35:43.454Z,27.90
2019-05-06T18:38:12.379Z,26.10
2019-05-06T18:40:42.344Z,27.77
2019-05-06T18:43:12.770Z,28.50
2019-05-06T18:45:41.981Z,27.70
2019-05-06T18:48:10.693Z,29.05
2019-05-06T18:50:39.527Z,27.02
2019-05-06T18:53:08.448Z,27.80
2019-05-06T18:55:42.103Z,26.33
2019-05-06T18:58:12.728Z,26.40
2019-05-06T19:00:41.112Z,27.77
2019-05-06T19:03:13.286Z,27.05
2019-05-06T19:05:42.998Z,26.33
2019-05-06T19:08:21.968Z,26.80
2019-05-06T19:10:50.742Z,26.20
2019-05-06T19:13:19.513Z,27.37
2019-05-06T19:15:48.372Z,27.42
2019-05-06T19:18:17.379Z,28.62
2019-05-06T19:20:46.319Z,27.85
2019-05-06T19:23:15.011Z,27.73
2019-05-06T19:25:43.741Z,27.42
2019-05-06T19:28:14.141Z,30.05
2019-05-06T19:30:43.257Z,115.35
2019-05-06T19:33:12.323Z,99.15
2019-05-06T19:35:42.834Z,103.47
2019-05-06T19:38:12.502Z,39.18
2019-05-06T19:40:41.591Z,32.13
2019-05-06T19:43:12.263Z,39.65
2019-05-06T19:45:42.257Z,28.85
2019-05-06T19:48:13.245Z,29.80
2019-05-06T19:50:42.477Z,29.90
2019-05-06T19:53:11.840Z,30.02
2019-05-06T19:55:43.872Z,30.08
2019-05-06T19:58:12.989Z,31.12
2019-05-06T20:00:42.060Z,34.23
2019-05-06T20:03:12.311Z,39.18
2019-05-06T20:06:02.345Z,33.23
2019-05-06T20:08:42.201Z,33.40
2019-05-06T20:11:36.756Z,33.53
2019-05-06T20:14:05.521Z,33.90
2019-05-06T20:16:34.473Z,32.40
2019-05-06T20:19:03.390Z,35.17
2019-05-06T20:21:32.931Z,34.63
2019-05-06T20:24:02.403Z,34.33
2019-05-06T20:26:32.408Z,33.18
2019-05-06T20:29:02.179Z,33.48
2019-05-06T20:31:32.160Z,32.05
2019-05-06T20:34:02.261Z,33.60
2019-05-06T20:36:33.179Z,32.78
2019-05-06T20:39:02.541Z,31.30
2019-05-06T20:41:32.861Z,30.97
2019-05-06T20:44:02.672Z,31.27
2019-05-06T20:46:32.302Z,29.92
2019-05-06T20:49:02.487Z,28.50
2019-05-06T20:51:32.776Z,26.37
2019-05-06T20:54:01.614Z,28.90
2019-05-06T20:56:32.607Z,29.35
2019-05-06T20:59:02.420Z,30.80
2019-05-06T21:01:32.681Z,30.60
2019-05-06T21:04:02.203Z,45.43
2019-05-06T21:06:32.219Z,33.18
2019-05-06T21:09:02.101Z,37.67
2019-05-06T21:11:32.534Z,40.28
2019-05-06T21:14:02.323Z,33.33
2019-05-06T21:16:32.098Z,35.40
2019-05-06T21:19:03.232Z,30.65
2019-05-06T21:21:32.714Z,31.82
2019-05-06T21:24:02.120Z,27.50
2019-05-06T21:26:32.978Z,26.30
2019-05-06T21:29:03.244Z,27.02
2019-05-06T21:31:32.672Z,24.95
2019-05-06T21:34:01.405Z,24.50
2019-05-06T21:36:30.465Z,25.20
2019-05-06T21:38:59.166Z,24.00
2019-05-06T21:41:28.102Z,27.50
2019-05-06T21:43:57.036Z,27.50
2019-05-06T21:46:25.996Z,29.32
2019-05-06T21:48:55.249Z,27.65
2019-05-06T21:51:24.057Z,27.87
2019-05-06T21:53:52.870Z,45.60
2019-05-06T21:56:22.628Z,31.80
2019-05-06T21:58:52.394Z,31.48
2019-05-06T22:01:22.207Z,31.87
2019-05-06T22:03:50.882Z,32.88
2019-05-06T22:06:19.885Z,34.33
2019-05-06T22:08:48.839Z,34.80
2019-05-06T22:11:17.539Z,36.42
2019-05-06T22:13:57.875Z,37.28
2019-05-06T22:16:19.627Z,37.88
2019-05-06T22:18:48.352Z,36.47
2019-05-06T22:21:22.479Z,37.35
2019-05-06T22:23:53.078Z,37.05
2019-05-06T22:26:23.238Z,37.67
2019-05-06T22:28:52.632Z,35.55
2019-05-06T22:31:24.188Z,34.13
2019-05-06T22:33:52.374Z,31.87
2019-05-06T22:36:22.732Z,31.27
2019-05-06T22:38:54.015Z,29.85
2019-05-06T22:41:25.254Z,29.12
2019-05-06T22:43:53.631Z,29.37
2019-05-06T22:46:23.370Z,29.07
2019-05-06T22:48:54.525Z,27.62
2019-05-06T22:51:23.415Z,27.22
2019-05-06T22:53:53.234Z,27.62
2019-05-06T22:56:23.019Z,31.52
2019-05-06T22:58:52.564Z,31.05
2019-05-06T23:01:54.270Z,31.70
2019-05-06T23:04:24.104Z,30.48
2019-05-06T23:06:52.962Z,32.60
2019-05-06T23:09:24.531Z,32.48
2019-05-06T23:11:52.994Z,34.13
2019-05-06T23:14:31.351Z,33.83
2019-05-06T23:16:52.348Z,34.10
2019-05-06T23:19:21.943Z,35.25
2019-05-06T23:21:53.327Z,35.35
2019-05-06T23:24:22.560Z,35.45
2019-05-06T23:26:54.308Z,35.60
2019-05-06T23:29:22.520Z,34.78
2019-05-06T23:31:52.120Z,35.68
2019-05-06T23:34:23.046Z,35.00
2019-05-06T23:37:23.218Z,34.38
2019-05-06T23:40:39.939Z,34.80
2019-05-06T23:43:44.497Z,34.88
2019-05-06T23:46:49.785Z,34.65
2019-05-06T23:49:54.455Z,32.23
2019-05-06T23:52:59.230Z,33.30
2019-05-06T23:56:03.959Z,32.33
2019-05-06T23:58:32.636Z,31.40
